ASN logo
ASN Wikibase Occurrence # 201183
Last updated: 21 February 2018
This information is added by users of ASN. Neither ASN nor the Flight Safety Foundation are responsible for the completeness or correctness of this information. If you feel this information is incomplete or incorrect, you can submit corrected information.

Date:11-NOV-2017
Time:23:36 LT
Type:Silhouette image of generic B744 model; specific model in this crash may look slightly different
Boeing 747-428FER
Owner/operator:Saudia Cargo, opb ACT Airlines
Registration: TC-ACR
C/n / msn: 32866/1315
Fatalities:Fatalities: 0 / Occupants: 4
Other fatalities:0
Airplane damage: Unknown
Category:Serious incident
Location:Maastricht-Aachen Airport (MST/EHBK) -   Netherlands
Phase: Take off
Nature:Cargo
Departure airport:Maastricht-Aachen Airport (MST/EHBK)
Destination airport:Jeddah-King Abdulaziz International Airport (JED/OEJN)
Investigating agency: Dutch Safety Board
Narrative:
Saudia Cargo flight SV916 suffered a runway excursion during takeoff from runway 21 at Maastricht-Aachen Airport, the Netherlands.
The aircraft, a Boeing 747-400F, was cleared for departure from runway 21 for a flight to Jeddah, Saudi Arabia.
Shortly after initiating the takeoff roll, the aircraft swerved to the right. The flight crew was not able to regain directional control and the aircraft ran onto the grass where it was brought to a stop.

Runway 21 has a Takeoff Distance Available (TODA) of 2500 meters.
Weather about the time of the incident:
EHBK 112255Z AUTO 22004KT 200V260 3600 -DZ FEW029 SCT033 OVC038 05/05 Q1010
EHBK 112225Z AUTO 25003KT 210V300 8000 BKN040 OVC044 05/05 Q1011

Sources:

https://www.onderzoeksraad.nl/nl/onderzoek/2381/vrachtvliegtuig-van-de-baan-geraakt-11-november-2017

https://www.nu.nl/binnenland/5003189/vrachtvliegtuig-van-landingsbaan-geraakt-vliegveld-maastricht-.html?redirect=1
https://nos.nl/artikel/2202389-vrachtvliegtuig-van-de-baan-op-vliegveld-maastricht-geen-gewonden.html

Runway Excursion TC-ACR EHBK


Revision history:

Date/timeContributorUpdates
12-Nov-2017 07:58 Chieftain Added
12-Nov-2017 08:00 harro Updated [Aircraft type, Registration, Cn, Total occupants, Other fatalities, Location, Departure airport, Destination airport]
12-Nov-2017 08:04 harro Updated [Time, Operator, Phase, Departure airport, Destination airport, Embed code, Narrative]
12-Nov-2017 08:07 harro Updated [Destination airport, Embed code]
12-Nov-2017 08:50 harro Updated [Time, Narrative]
12-Nov-2017 10:14 harro Updated [Embed code, Narrative]
12-Nov-2017 10:18 harro Updated [Narrative]
12-Nov-2017 10:44 harro Updated [Narrative]
12-Nov-2017 11:50 Iceman 29 Updated [Embed code]
12-Nov-2017 12:22 80.61.9.206 Updated [Embed code]
12-Nov-2017 12:23 harro Updated [Source, Embed code]
12-Nov-2017 12:59 harro Updated [Embed code]
10-Dec-2017 19:05 harro Updated [Total fatalities, Source, Narrative]

Corrections or additions? ... Edit this accident description